Time;durP1;ratioP1;P1;durP2;ratioP2;P2;SDS_P1;SDS_P2;PMS_P1;PMS_P2;Temp;Humidity;BMP_temperature;BMP_pressure;BME280_temperature;BME280_humidity;BME280_pressure;Samples;Min_cycle;Max_cycle;Signal;HPM_P1;HPM_P2
2023/01/16 00:00:29;;;;;;;5.55;1.60;;;4.80;99.90;;;;;;5031919;28;20021;-80
2023/01/16 00:02:55;;;;;;;8.05;1.75;;;4.80;99.90;;;;;;5030143;28;20037;-83
2023/01/16 00:05:20;;;;;;;8.25;1.70;;;4.80;99.90;;;;;;5044165;28;20461;-87
2023/01/16 00:07:46;;;;;;;6.70;1.88;;;4.70;99.90;;;;;;5035239;28;20021;-82
2023/01/16 00:10:12;;;;;;;7.50;2.00;;;4.70;99.90;;;;;;5022693;28;20259;-83
2023/01/16 00:12:37;;;;;;;6.60;2.35;;;4.70;99.90;;;;;;5032249;28;20039;-83
2023/01/16 00:15:04;;;;;;;6.43;1.77;;;4.70;99.90;;;;;;5036836;28;20017;-81
2023/01/16 00:17:29;;;;;;;6.32;1.73;;;4.70;99.90;;;;;;5031274;28;20107;-83
2023/01/16 00:19:55;;;;;;;6.68;1.95;;;4.60;99.90;;;;;;5033698;28;20072;-82
2023/01/16 00:22:20;;;;;;;5.97;1.60;;;4.70;99.90;;;;;;5030613;28;20032;-83
2023/01/16 00:24:46;;;;;;;6.53;2.10;;;4.70;99.90;;;;;;5028948;28;20116;-86
2023/01/16 00:27:12;;;;;;;3.65;1.42;;;4.70;99.90;;;;;;5032468;28;20040;-83
2023/01/16 00:29:37;;;;;;;3.70;1.73;;;4.70;99.90;;;;;;5036785;28;20025;-83
2023/01/16 00:32:03;;;;;;;7.80;1.92;;;4.70;99.90;;;;;;5034335;28;20048;-85
2023/01/16 00:34:28;;;;;;;6.97;2.00;;;4.60;99.90;;;;;;5032862;28;20241;-86
2023/01/16 00:36:54;;;;;;;8.32;2.08;;;4.60;99.90;;;;;;5025427;28;20172;-83
2023/01/16 00:39:20;;;;;;;11.48;1.92;;;4.60;99.90;;;;;;5032992;28;20022;-82
2023/01/16 00:41:45;;;;;;;7.10;2.03;;;4.60;99.90;;;;;;5023836;28;20047;-84
2023/01/16 00:44:11;;;;;;;6.82;1.70;;;4.70;99.90;;;;;;5034111;28;20055;-83
2023/01/16 00:46:36;;;;;;;5.13;1.40;;;4.60;99.90;;;;;;5026058;28;20026;-82
2023/01/16 00:49:02;;;;;;;8.40;1.55;;;4.60;99.90;;;;;;5030231;28;20037;-83
2023/01/16 00:51:27;;;;;;;7.80;1.95;;;4.60;99.90;;;;;;5023320;28;20436;-83
2023/01/16 00:53:53;;;;;;;14.50;2.08;;;4.60;99.90;;;;;;5035054;28;20032;-83
2023/01/16 00:56:18;;;;;;;9.90;2.25;;;4.60;99.90;;;;;;5036625;28;20090;-84
2023/01/16 00:58:44;;;;;;;10.63;3.47;;;4.60;99.90;;;;;;5031776;28;20035;-83
2023/01/16 01:01:10;;;;;;;11.23;1.63;;;4.60;99.90;;;;;;5032967;28;20033;-83
2023/01/16 01:03:36;;;;;;;13.07;1.70;;;4.70;99.90;;;;;;5026071;28;20385;-84
2023/01/16 01:06:11;;;;;;;8.00;1.90;;;4.70;99.90;;;;;;5034403;28;20021;-84
2023/01/16 01:08:36;;;;;;;7.57;1.95;;;4.70;99.90;;;;;;5036081;28;20021;-84
2023/01/16 01:11:10;;;;;;;13.00;2.30;;;4.70;99.90;;;;;;5037590;28;20039;-82
2023/01/16 01:13:36;;;;;;;11.05;2.67;;;4.70;99.90;;;;;;5032421;28;20112;-83
2023/01/16 01:16:02;;;;;;;11.95;2.10;;;4.70;99.90;;;;;;5034251;28;20079;-84
2023/01/16 01:18:27;;;;;;;8.73;2.30;;;4.70;99.90;;;;;;5028828;28;20026;-83
2023/01/16 01:20:53;;;;;;;8.77;2.10;;;4.70;99.90;;;;;;5034418;28;20041;-83
2023/01/16 01:23:19;;;;;;;9.40;1.60;;;4.80;99.90;;;;;;5029746;28;20388;-82
2023/01/16 01:25:44;;;;;;;6.07;1.85;;;4.70;99.90;;;;;;5029463;28;20404;-82
2023/01/16 01:28:10;;;;;;;9.25;2.33;;;4.70;99.90;;;;;;5032644;28;20477;-83
2023/01/16 01:30:37;;;;;;;4.90;2.15;;;4.70;99.90;;;;;;5028383;28;20305;-83
2023/01/16 01:33:03;;;;;;;11.77;1.83;;;4.70;99.90;;;;;;5039423;28;20040;-83
2023/01/16 01:35:29;;;;;;;6.90;2.00;;;4.70;99.90;;;;;;5038005;28;20025;-82
2023/01/16 01:37:54;;;;;;;7.47;1.75;;;4.70;99.90;;;;;;5034476;28;20024;-82
2023/01/16 01:40:20;;;;;;;9.75;2.00;;;4.70;99.90;;;;;;5032727;28;20047;-82
2023/01/16 01:42:51;;;;;;;5.22;2.50;;;4.60;99.90;;;;;;5027736;28;20036;-82
2023/01/16 01:45:33;;;;;;;4.85;1.45;;;4.70;99.90;;;;;;5032095;28;20048;-83
2023/01/16 01:48:20;;;;;;;10.63;2.05;;;4.70;99.90;;;;;;5035150;28;20024;-81
2023/01/16 01:50:51;;;;;;;8.68;1.85;;;4.70;99.90;;;;;;5030836;28;20045;-83
2023/01/16 01:53:26;;;;;;;7.03;2.10;;;4.70;99.90;;;;;;5026573;28;20491;-83
2023/01/16 01:55:53;;;;;;;5.83;2.03;;;4.70;99.90;;;;;;5038453;28;20103;-82
2023/01/16 01:58:22;;;;;;;5.50;2.20;;;4.70;99.90;;;;;;5036938;28;20266;-83
2023/01/16 02:00:52;;;;;;;8.73;1.83;;;4.70;99.90;;;;;;5030483;28;20026;-82
2023/01/16 02:03:25;;;;;;;4.78;2.00;;;4.60;99.90;;;;;;5025986;28;20070;-82
2023/01/16 02:05:54;;;;;;;6.45;1.65;;;4.60;99.90;;;;;;5032564;28;20923;-81
2023/01/16 02:08:28;;;;;;;7.90;3.30;;;4.60;99.90;;;;;;5035147;28;20112;-81
2023/01/16 02:11:04;;;;;;;6.95;1.88;;;4.60;99.90;;;;;;5033119;28;20032;-81
2023/01/16 02:13:30;;;;;;;8.93;2.08;;;4.60;99.90;;;;;;5041026;28;20347;-82
2023/01/16 02:21:35;;;;;;;11.43;2.05;;;4.50;99.90;;;;;;5029818;28;20501;-82
2023/01/16 02:24:21;;;;;;;5.78;1.85;;;4.50;99.90;;;;;;5037597;28;20033;-82
2023/01/16 02:27:31;;;;;;;17.25;4.20;;;4.50;99.90;;;;;;5026845;28;20220;-83
2023/01/16 02:30:30;;;;;;;8.50;2.20;;;4.50;99.90;;;;;;5017577;28;20087;-82
2023/01/16 02:33:09;;;;;;;7.32;1.90;;;4.50;99.90;;;;;;5020600;28;20040;-81
2023/01/16 02:35:47;;;;;;;6.82;1.95;;;4.50;99.90;;;;;;5030385;28;20024;-82
2023/01/16 02:38:15;;;;;;;6.72;1.70;;;4.50;99.90;;;;;;5034714;28;20028;-82
2023/01/16 02:41:10;;;;;;;11.02;2.08;;;4.50;99.90;;;;;;5036269;28;20376;-82
2023/01/16 02:43:44;;;;;;;5.28;1.60;;;4.50;99.90;;;;;;5028786;28;20037;-86
2023/01/16 02:46:45;;;;;;;8.43;2.28;;;4.40;99.90;;;;;;5038518;28;20025;-82
2023/01/16 02:49:26;;;;;;;10.13;2.20;;;4.50;99.90;;;;;;5030922;28;20045;-82
2023/01/16 02:52:14;;;;;;;8.88;2.10;;;4.50;99.90;;;;;;5029184;28;20057;-83
2023/01/16 02:54:53;;;;;;;10.60;2.15;;;4.60;99.90;;;;;;5025784;28;20034;-83
2023/01/16 02:57:21;;;;;;;6.53;1.90;;;4.50;99.90;;;;;;5026749;28;20036;-83
2023/01/16 02:59:49;;;;;;;6.43;2.05;;;4.50;99.90;;;;;;5038120;28;20030;-82
2023/01/16 03:02:15;;;;;;;7.70;2.47;;;4.50;99.90;;;;;;5036277;28;20093;-83
2023/01/16 03:04:42;;;;;;;11.35;2.33;;;4.50;99.90;;;;;;5033050;28;20120;-83
2023/01/16 03:07:23;;;;;;;10.10;2.15;;;4.50;99.90;;;;;;5028909;28;20060;-81
2023/01/16 03:10:13;;;;;;;8.73;2.25;;;4.50;99.90;;;;;;5030454;28;21201;-82
2023/01/16 03:12:53;;;;;;;4.95;1.88;;;4.40;99.90;;;;;;5033557;28;20034;-81
2023/01/16 03:16:00;;;;;;;10.80;2.65;;;4.40;99.90;;;;;;5038959;28;20024;-80
2023/01/16 03:18:42;;;;;;;;;;;4.50;99.90;;;;;;5024980;28;20548;-82
2023/01/16 03:21:16;;;;;;;10.38;2.20;;;4.50;99.90;;;;;;5030563;28;19995;-85
2023/01/16 03:23:50;;;;;;;12.73;2.78;;;4.40;99.90;;;;;;5033438;28;20024;-81
2023/01/16 03:26:27;;;;;;;5.38;1.90;;;4.40;99.90;;;;;;5044312;28;20056;-83
2023/01/16 03:29:08;;;;;;;4.80;1.73;;;4.40;99.90;;;;;;5029852;28;20032;-82
2023/01/16 03:31:38;;;;;;;3.03;1.77;;;4.30;99.90;;;;;;5030485;28;20028;-81
2023/01/16 03:34:21;;;;;;;12.13;2.67;;;4.30;99.90;;;;;;5035315;28;20043;-81
2023/01/16 03:36:56;;;;;;;4.53;2.13;;;4.30;99.90;;;;;;5029342;28;20055;-84
2023/01/16 03:39:25;;;;;;;8.83;2.13;;;4.30;99.90;;;;;;5032098;28;20029;-84
2023/01/16 03:41:54;;;;;;;4.70;2.13;;;4.20;99.90;;;;;;5030914;28;20477;-85
2023/01/16 03:44:35;;;;;;;6.78;1.90;;;4.20;99.90;;;;;;5036497;28;20052;-83
2023/01/16 03:47:02;;;;;;;4.43;1.77;;;4.20;99.90;;;;;;5030740;28;23095;-87
2023/01/16 03:49:35;;;;;;;6.15;1.88;;;4.10;99.90;;;;;;5030386;28;20416;-86
2023/01/16 03:52:05;;;;;;;3.58;1.80;;;4.10;99.90;;;;;;5031556;28;21588;-82
2023/01/16 03:55:05;;;;;;;5.20;1.70;;;4.10;99.90;;;;;;5036081;28;20025;-84
2023/01/16 03:57:37;;;;;;;3.25;1.65;;;4.10;99.90;;;;;;5031606;28;20025;-84
2023/01/16 04:00:03;;;;;;;5.35;1.67;;;4.10;99.90;;;;;;5038458;28;20029;-84
2023/01/16 04:02:38;;;;;;;14.35;2.10;;;4.10;99.90;;;;;;5034415;28;20473;-82
2023/01/16 04:05:27;;;;;;;6.43;2.10;;;4.20;99.90;;;;;;5033865;28;20025;-85
2023/01/16 04:08:05;;;;;;;4.20;1.77;;;4.20;99.90;;;;;;5024777;28;20065;-84
2023/01/16 04:10:35;;;;;;;4.65;1.83;;;4.20;99.90;;;;;;5021266;28;20013;-84
2023/01/16 04:13:06;;;;;;;6.32;2.05;;;4.20;99.90;;;;;;5022794;28;20116;-85
2023/01/16 04:15:35;;;;;;;7.50;1.88;;;4.20;99.90;;;;;;5038305;28;20049;-87
2023/01/16 04:18:01;;;;;;;4.97;2.00;;;4.10;99.90;;;;;;5033082;28;20029;-85
2023/01/16 04:20:30;;;;;;;5.80;1.88;;;4.20;99.90;;;;;;5030674;28;20449;-85
2023/01/16 04:22:55;;;;;;;8.27;3.03;;;4.20;99.90;;;;;;5025494;28;20021;-84
2023/01/16 04:25:21;;;;;;;5.97;2.38;;;4.10;99.90;;;;;;5042910;28;20048;-84
2023/01/16 04:27:47;;;;;;;6.85;1.70;;;4.10;99.90;;;;;;5042182;28;20056;-82
2023/01/16 04:30:16;;;;;;;5.07;2.15;;;4.10;99.90;;;;;;5033761;28;20079;-85
2023/01/16 04:32:42;;;;;;;8.93;2.15;;;4.10;99.90;;;;;;5030317;28;20045;-85
2023/01/16 04:35:08;;;;;;;4.13;1.70;;;4.10;99.90;;;;;;5036183;28;20027;-83
2023/01/16 04:37:34;;;;;;;3.50;2.00;;;4.10;99.90;;;;;;5032293;28;20048;-86
2023/01/16 04:40:00;;;;;;;8.68;1.92;;;4.10;99.90;;;;;;5030413;28;20052;-85
2023/01/16 04:42:26;;;;;;;3.85;2.03;;;4.10;99.90;;;;;;5034448;28;20029;-86
2023/01/16 04:44:51;;;;;;;5.55;1.70;;;4.10;99.90;;;;;;5030692;28;20025;-85
2023/01/16 04:47:17;;;;;;;5.38;1.70;;;4.10;99.90;;;;;;5031982;28;20025;-84
2023/01/16 04:49:42;;;;;;;5.60;1.90;;;4.10;99.90;;;;;;5036579;28;20543;-86
2023/01/16 04:52:12;;;;;;;4.72;1.90;;;4.10;99.90;;;;;;5033799;28;20151;-83
2023/01/16 04:54:37;;;;;;;3.75;1.83;;;4.10;99.90;;;;;;5032567;28;20143;-83
2023/01/16 04:57:03;;;;;;;4.32;1.77;;;4.10;99.90;;;;;;5031710;28;20037;-85
2023/01/16 04:59:29;;;;;;;5.22;2.65;;;4.10;99.90;;;;;;5039016;28;20096;-87
2023/01/16 05:01:54;;;;;;;4.47;2.22;;;4.10;99.90;;;;;;5032208;28;20021;-83
2023/01/16 05:04:20;;;;;;;3.83;1.95;;;4.10;99.90;;;;;;5026646;28;20029;-82
2023/01/16 05:06:47;;;;;;;5.18;1.58;;;4.10;99.90;;;;;;5031407;28;20032;-83
2023/01/16 05:09:12;;;;;;;3.40;1.60;;;4.10;99.90;;;;;;5034027;28;20021;-84
2023/01/16 05:11:38;;;;;;;5.85;1.40;;;4.00;99.90;;;;;;5027040;28;20037;-82
2023/01/16 05:14:07;;;;;;;4.07;1.60;;;4.10;99.90;;;;;;5025467;28;20031;-83
2023/01/16 05:16:38;;;;;;;5.80;1.55;;;4.10;99.90;;;;;;5035572;28;20025;-83
2023/01/16 05:19:05;;;;;;;2.97;1.58;;;4.00;99.90;;;;;;5027168;28;20049;-85
2023/01/16 05:21:31;;;;;;;9.82;2.05;;;4.10;99.90;;;;;;5027175;28;20044;-84
2023/01/16 05:23:57;;;;;;;4.10;1.75;;;4.10;99.90;;;;;;5026212;28;20028;-84
2023/01/16 05:26:23;;;;;;;4.22;2.03;;;4.10;99.90;;;;;;5022704;28;20102;-82
2023/01/16 05:28:49;;;;;;;8.80;2.10;;;4.10;99.90;;;;;;5022712;28;20032;-86
2023/01/16 05:31:14;;;;;;;9.27;2.10;;;4.10;99.90;;;;;;5022887;28;20514;-87
2023/01/16 05:33:40;;;;;;;4.13;1.60;;;4.10;99.90;;;;;;5028162;28;20052;-82
2023/01/16 05:36:06;;;;;;;8.60;1.67;;;4.10;99.90;;;;;;5020768;28;20061;-85
2023/01/16 05:38:32;;;;;;;6.15;1.67;;;4.00;99.90;;;;;;5036739;28;20041;-85
2023/01/16 05:40:58;;;;;;;3.35;1.23;;;4.10;99.90;;;;;;5025242;28;20049;-85
2023/01/16 05:43:25;;;;;;;7.25;2.13;;;4.00;99.90;;;;;;5019065;28;20030;-86
2023/01/16 05:45:51;;;;;;;9.48;2.28;;;4.10;99.90;;;;;;5032204;28;20032;-87
2023/01/16 05:48:17;;;;;;;7.72;2.85;;;4.10;99.90;;;;;;5028371;28;20036;-87
2023/01/16 05:50:42;;;;;;;4.50;2.33;;;4.10;99.90;;;;;;5030984;28;20312;-87
2023/01/16 05:53:08;;;;;;;4.97;2.15;;;4.10;99.90;;;;;;5033488;28;20041;-85
2023/01/16 05:55:44;;;;;;;6.55;1.77;;;4.10;99.90;;;;;;5037957;28;20108;-84
2023/01/16 05:58:14;;;;;;;8.77;1.85;;;4.10;99.90;;;;;;5028300;28;20033;-85
2023/01/16 06:00:40;;;;;;;10.25;1.67;;;4.10;99.90;;;;;;5036225;28;20021;-84
2023/01/16 06:03:06;;;;;;;6.72;1.95;;;4.10;99.90;;;;;;5032797;28;20107;-83
2023/01/16 06:05:32;;;;;;;6.97;2.30;;;4.10;99.90;;;;;;5038727;28;20032;-86
2023/01/16 06:07:58;;;;;;;9.63;2.30;;;4.10;99.90;;;;;;5036225;28;20117;-87
2023/01/16 06:10:24;;;;;;;5.55;2.35;;;4.10;99.90;;;;;;5043024;28;20036;-83
2023/01/16 06:12:50;;;;;;;10.00;2.30;;;4.10;99.90;;;;;;5028686;28;20037;-81
2023/01/16 06:15:16;;;;;;;5.97;2.13;;;4.10;99.90;;;;;;5036497;28;20079;-84
2023/01/16 06:17:42;;;;;;;6.05;1.92;;;4.00;99.90;;;;;;5042514;28;20056;-86
2023/01/16 06:20:09;;;;;;;3.83;1.88;;;4.10;99.90;;;;;;5036251;28;20110;-87
2023/01/16 06:22:34;;;;;;;4.85;1.95;;;4.10;99.90;;;;;;5029857;28;20523;-84
2023/01/16 06:25:00;;;;;;;4.90;1.83;;;4.00;99.90;;;;;;5042786;28;20040;-85
2023/01/16 06:27:25;;;;;;;8.13;2.15;;;4.10;99.90;;;;;;5033864;28;20382;-85
2023/01/16 06:29:51;;;;;;;8.50;2.33;;;4.10;99.90;;;;;;5029864;28;20021;-84
2023/01/16 06:32:17;;;;;;;3.58;1.80;;;4.10;99.90;;;;;;5022358;28;20037;-85
2023/01/16 06:34:43;;;;;;;7.38;1.98;;;4.00;99.90;;;;;;5039025;28;20031;-84
2023/01/16 06:37:10;;;;;;;11.50;2.13;;;4.00;99.90;;;;;;5036461;28;20044;-82
2023/01/16 06:39:35;;;;;;;4.60;2.15;;;4.00;99.90;;;;;;5038925;28;20116;-85
2023/01/16 06:42:03;;;;;;;4.38;1.60;;;4.10;99.90;;;;;;5036711;28;20473;-89
2023/01/16 06:44:29;;;;;;;9.85;1.85;;;4.10;99.90;;;;;;5022823;28;20484;-86
2023/01/16 06:46:54;;;;;;;11.10;1.92;;;4.00;99.90;;;;;;5040437;28;20018;-86
2023/01/16 06:49:20;;;;;;;5.80;1.77;;;4.00;99.90;;;;;;5024941;28;20045;-87
2023/01/16 06:51:45;;;;;;;4.50;1.75;;;4.00;99.90;;;;;;5036914;28;20057;-85
2023/01/16 06:54:11;;;;;;;6.05;2.30;;;4.00;99.90;;;;;;5039743;28;20056;-84
2023/01/16 06:56:37;;;;;;;6.38;1.85;;;4.00;99.90;;;;;;5031437;28;20103;-84
2023/01/16 06:59:03;;;;;;;6.80;2.30;;;4.00;99.90;;;;;;5036114;28;20037;-85
2023/01/16 07:01:29;;;;;;;7.57;2.00;;;4.00;99.90;;;;;;5043794;28;20382;-85
2023/01/16 07:03:54;;;;;;;14.60;2.38;;;4.00;99.90;;;;;;5042124;28;20120;-86
2023/01/16 07:06:20;;;;;;;8.85;2.40;;;4.00;99.90;;;;;;5048852;28;20051;-84
2023/01/16 07:08:48;;;;;;;6.97;2.95;;;4.00;99.90;;;;;;5040393;28;20085;-85
2023/01/16 07:11:14;;;;;;;11.20;2.13;;;4.00;99.90;;;;;;5041409;28;20045;-84
2023/01/16 07:13:40;;;;;;;9.98;2.13;;;4.00;99.90;;;;;;5033066;28;20039;-85
2023/01/16 07:24:24;;;;;;;6.40;1.77;;;3.90;99.90;;;;;;5028416;28;20090;-90
2023/01/16 07:26:59;;;;;;;4.22;1.80;;;3.90;99.90;;;;;;5030394;28;20072;-84
2023/01/16 07:29:27;;;;;;;3.60;2.03;;;3.90;99.90;;;;;;5028571;28;20338;-84
2023/01/16 07:31:53;;;;;;;7.63;2.95;;;3.90;99.90;;;;;;5033596;28;20662;-83
2023/01/16 07:34:19;;;;;;;12.18;1.90;;;3.90;99.90;;;;;;5034900;28;20021;-85
2023/01/16 07:36:44;;;;;;;12.13;2.05;;;3.90;99.90;;;;;;5031932;28;20107;-85
2023/01/16 07:39:10;;;;;;;3.70;1.50;;;3.90;99.90;;;;;;5042919;28;20029;-84
2023/01/16 07:41:35;;;;;;;3.38;1.67;;;3.90;99.90;;;;;;5037444;28;20139;-83
2023/01/16 07:44:01;;;;;;;18.83;2.20;;;3.90;99.90;;;;;;5037643;28;20458;-84
2023/01/16 07:46:26;;;;;;;10.75;1.90;;;3.90;99.90;;;;;;5039102;28;20025;-85
2023/01/16 07:48:53;;;;;;;6.72;1.90;;;3.90;99.90;;;;;;5036133;28;20044;-84
2023/01/16 07:51:19;;;;;;;10.82;1.92;;;3.90;99.90;;;;;;5037110;28;20520;-85
2023/01/16 07:53:44;;;;;;;9.80;3.80;;;3.90;99.90;;;;;;5038183;28;20064;-86
2023/01/16 07:56:10;;;;;;;8.65;2.40;;;3.90;99.90;;;;;;5042619;28;20036;-83
2023/01/16 07:58:37;;;;;;;5.70;2.05;;;3.90;99.90;;;;;;5037139;28;20774;-84
2023/01/16 08:01:05;;;;;;;4.93;1.88;;;3.90;99.90;;;;;;5035095;28;20037;-84
2023/01/16 08:03:31;;;;;;;3.60;1.80;;;3.80;99.90;;;;;;5040338;28;20025;-83
2023/01/16 08:05:57;;;;;;;5.68;2.30;;;3.90;99.90;;;;;;5035462;28;20056;-84
2023/01/16 08:08:25;;;;;;;11.23;2.60;;;3.90;99.90;;;;;;5041205;28;20377;-84
2023/01/16 08:10:54;;;;;;;4.15;2.03;;;3.90;99.90;;;;;;5041200;28;20539;-84
2023/01/16 08:13:20;;;;;;;5.47;2.28;;;3.90;99.90;;;;;;5047168;28;20037;-84
2023/01/16 08:15:46;;;;;;;4.68;1.83;;;3.90;99.90;;;;;;5046311;28;20020;-84
2023/01/16 08:18:13;;;;;;;6.55;2.03;;;3.90;99.90;;;;;;5045911;28;20029;-84
2023/01/16 08:20:40;;;;;;;5.13;2.03;;;4.00;99.90;;;;;;5046520;28;20029;-83
2023/01/16 08:23:06;;;;;;;6.65;1.67;;;4.10;99.90;;;;;;5037597;28;20021;-84
2023/01/16 08:25:31;;;;;;;5.40;1.80;;;4.10;99.90;;;;;;5046694;28;20370;-84
2023/01/16 08:27:57;;;;;;;5.20;1.90;;;4.10;99.90;;;;;;5037719;28;20358;-84
2023/01/16 08:30:23;;;;;;;5.45;1.85;;;4.10;99.90;;;;;;5034542;28;20032;-84
2023/01/16 08:32:48;;;;;;;6.75;1.85;;;4.10;99.90;;;;;;5040204;28;20057;-85
2023/01/16 08:35:14;;;;;;;4.13;1.40;;;4.10;99.90;;;;;;5039305;28;20025;-84
2023/01/16 08:37:47;;;;;;;3.00;1.60;;;4.20;99.90;;;;;;5038077;28;20021;-84
2023/01/16 08:40:13;;;;;;;2.45;1.65;;;4.20;99.90;;;;;;5038915;28;20021;-87
2023/01/16 08:53:38;;;;;;;2.33;1.23;;;4.40;99.90;;;;;;5029091;28;20040;-86
2023/01/16 08:56:04;;;;;;;3.10;1.75;;;4.50;99.90;;;;;;5044946;28;20393;-84
2023/01/16 08:58:30;;;;;;;3.90;1.50;;;4.50;99.90;;;;;;5036253;28;20025;-84
2023/01/16 09:00:56;;;;;;;5.65;1.70;;;4.50;99.90;;;;;;5042827;28;20424;-84
2023/01/16 09:03:22;;;;;;;8.93;2.00;;;4.60;99.90;;;;;;5036189;28;20033;-86
2023/01/16 09:05:47;;;;;;;3.70;1.80;;;4.60;99.90;;;;;;5036507;28;20128;-85
2023/01/16 09:08:13;;;;;;;5.90;1.70;;;4.60;99.90;;;;;;5037502;28;20378;-84
2023/01/16 09:10:38;;;;;;;7.40;1.50;;;4.60;99.90;;;;;;5037146;28;20597;-83
2023/01/16 09:15:49;;;;;;;7.55;2.10;;;4.60;99.90;;;;;;5031741;28;20056;-84
2023/01/16 09:18:15;;;;;;;6.57;2.55;;;4.70;99.90;;;;;;5043173;28;20025;-84
2023/01/16 09:20:40;;;;;;;5.53;2.17;;;4.70;99.90;;;;;;5039402;28;20022;-89
2023/01/16 09:23:06;;;;;;;7.20;2.20;;;4.70;99.90;;;;;;5036224;28;20021;-84
2023/01/16 09:25:32;;;;;;;12.80;2.10;;;4.70;99.90;;;;;;5037309;28;20107;-87
2023/01/16 09:27:59;;;;;;;6.20;2.08;;;4.70;99.90;;;;;;5037367;28;20076;-89
2023/01/16 09:30:26;;;;;;;7.32;2.03;;;4.70;99.90;;;;;;5037674;28;20402;-85
2023/01/16 09:32:51;;;;;;;8.00;2.15;;;4.70;99.90;;;;;;5032461;28;20466;-85
2023/01/16 09:35:17;;;;;;;9.85;1.92;;;4.70;99.90;;;;;;5041860;28;20036;-87
2023/01/16 09:37:43;;;;;;;3.83;1.80;;;4.70;99.90;;;;;;5031793;28;20030;-87
2023/01/16 09:40:16;;;;;;;5.97;1.83;;;4.70;99.90;;;;;;5036798;28;20049;-87
2023/01/16 09:45:32;;;;;;;6.10;2.00;;;4.60;99.90;;;;;;5034462;28;20436;-84
2023/01/16 09:48:05;;;;;;;2.47;1.63;;;4.60;99.90;;;;;;5037397;28;20505;-89
2023/01/16 09:50:50;;;;;;;9.18;2.42;;;4.60;99.90;;;;;;5029767;28;20037;-84
2023/01/16 09:59:47;;;;;;;8.23;2.05;;;4.60;99.90;;;;;;5036550;28;20032;-82
2023/01/16 10:02:31;;;;;;;11.43;2.78;;;4.60;99.90;;;;;;5023294;28;20262;-83
2023/01/16 10:04:57;;;;;;;9.73;1.65;;;4.60;99.90;;;;;;5036938;28;20028;-81
2023/01/16 10:07:32;;;;;;;8.43;1.80;;;4.60;99.90;;;;;;5030866;28;20048;-82
2023/01/16 10:10:25;;;;;;;9.85;2.33;;;4.70;99.90;;;;;;5035104;28;20024;-86
2023/01/16 10:13:24;;;;;;;8.98;2.15;;;4.70;99.90;;;;;;5032997;28;20041;-85
2023/01/16 10:16:05;;;;;;;10.77;2.40;;;4.70;99.90;;;;;;5034963;28;20029;-87
2023/01/16 10:18:39;;;;;;;6.70;2.25;;;4.80;99.90;;;;;;5033702;28;20036;-84
2023/01/16 10:21:10;;;;;;;9.52;2.30;;;4.80;99.90;;;;;;5036472;28;20025;-84
2023/01/16 10:24:07;;;;;;;16.17;2.63;;;4.80;99.90;;;;;;5027286;28;20108;-86
2023/01/16 10:26:38;;;;;;;6.78;2.90;;;4.90;99.90;;;;;;5020174;28;20056;-83
2023/01/16 10:29:22;;;;;;;11.10;1.85;;;4.90;99.90;;;;;;5037942;28;20116;-88
2023/01/16 10:31:56;;;;;;;6.90;1.63;;;5.00;99.90;;;;;;5030052;28;20033;-83
2023/01/16 10:34:33;;;;;;;5.07;1.80;;;5.00;99.90;;;;;;5040125;28;20025;-85
2023/01/16 10:37:00;;;;;;;3.10;1.45;;;5.00;99.90;;;;;;5029224;28;20110;-89
2023/01/16 10:39:35;;;;;;;13.10;1.90;;;5.10;99.90;;;;;;5035440;28;20009;-84
2023/01/16 10:51:00;;;;;;;6.82;2.13;;;5.20;99.90;;;;;;5032245;28;20040;-87
2023/01/16 10:53:26;;;;;;;8.85;1.85;;;5.30;99.90;;;;;;5037708;28;20120;-86
2023/01/16 10:55:53;;;;;;;6.25;1.52;;;5.30;99.90;;;;;;5045443;28;20028;-86
2023/01/16 10:58:28;;;;;;;4.75;1.63;;;5.30;99.90;;;;;;5049903;28;20029;-90
2023/01/16 11:01:09;;;;;;;3.55;1.92;;;5.30;99.90;;;;;;5039295;28;20505;-83
2023/01/16 11:03:38;;;;;;;10.15;3.20;;;5.30;99.90;;;;;;5032242;28;20033;-83
2023/01/16 11:06:23;;;;;;;6.05;2.60;;;5.40;99.90;;;;;;5039591;28;20160;-87
2023/01/16 11:08:54;;;;;;;6.20;1.65;;;5.40;99.90;;;;;;5046798;28;20476;-86
2023/01/16 11:20:38;;;;;;;10.55;4.47;;;5.50;99.90;;;;;;5044896;28;20385;-84
2023/01/16 11:23:18;;;;;;;13.02;2.88;;;5.50;99.90;;;;;;5032777;28;20084;-85
2023/01/16 11:25:45;;;;;;;4.82;2.10;;;5.50;99.90;;;;;;5033129;28;20021;-86
2023/01/16 11:28:23;;;;;;;7.70;2.72;;;5.50;99.90;;;;;;5046556;28;20025;-83
2023/01/16 11:30:55;;;;;;;9.88;2.38;;;5.60;99.90;;;;;;5039535;28;20059;-85
2023/01/16 11:33:28;;;;;;;6.03;2.20;;;5.60;99.90;;;;;;5028875;28;20029;-84
2023/01/16 11:36:00;;;;;;;7.63;1.80;;;5.60;99.90;;;;;;5039399;28;20462;-84
2023/01/16 11:38:32;;;;;;;8.27;1.75;;;5.60;99.90;;;;;;5038133;28;20075;-82
2023/01/16 11:41:00;;;;;;;7.70;1.90;;;5.60;99.90;;;;;;5035597;28;20139;-84
2023/01/16 11:46:36;;;;;;;7.10;1.75;;;5.50;99.90;;;;;;5032110;28;20051;-84
2023/01/16 11:49:23;;;;;;;10.05;2.33;;;5.50;99.90;;;;;;5043679;28;20477;-85
2023/01/16 11:51:53;;;;;;;6.43;2.13;;;5.50;99.90;;;;;;5043475;28;20033;-84
2023/01/16 11:54:28;;;;;;;7.10;1.60;;;5.50;99.90;;;;;;5039920;28;20401;-84
2023/01/16 11:57:21;;;;;;;6.97;1.77;;;5.50;99.90;;;;;;5039578;28;20028;-82
2023/01/16 12:00:06;;;;;;;7.25;1.70;;;5.50;99.90;;;;;;5031542;28;20367;-84
2023/01/16 12:03:11;;;;;;;6.63;1.63;;;5.50;99.90;;;;;;5031268;28;20107;-85
2023/01/16 12:05:56;;;;;;;6.40;2.05;;;5.50;99.90;;;;;;5039069;28;20033;-85
2023/01/16 12:08:30;;;;;;;8.13;1.50;;;5.50;99.90;;;;;;5039239;28;20545;-84
2023/01/16 12:11:01;;;;;;;12.77;2.50;;;5.50;99.90;;;;;;5038207;28;20155;-86
2023/01/16 12:16:37;;;;;;;9.82;2.25;;;5.60;99.90;;;;;;5036762;28;20405;-84
2023/01/16 12:19:20;;;;;;;4.28;1.52;;;5.50;99.90;;;;;;5036866;28;20074;-86
2023/01/16 12:22:05;;;;;;;8.18;2.00;;;5.60;99.90;;;;;;5036459;28;20044;-84
2023/01/16 12:24:37;;;;;;;5.15;1.73;;;5.50;99.90;;;;;;5035128;28;20018;-83
2023/01/16 12:27:03;;;;;;;7.07;1.85;;;5.50;99.90;;;;;;5042514;28;20043;-84
2023/01/16 12:29:43;;;;;;;4.43;1.50;;;5.50;99.90;;;;;;5022976;28;20021;-86
2023/01/16 12:32:22;;;;;;;3.50;1.60;;;5.50;99.90;;;;;;5033181;28;20043;-85
2023/01/16 12:35:28;;;;;;;2.08;1.38;;;5.60;99.90;;;;;;5023184;28;20029;-85
2023/01/16 12:38:05;;;;;;;4.53;1.83;;;5.60;99.90;;;;;;5002971;28;20030;-84
2023/01/16 12:43:57;;;;;;;7.07;1.50;;;5.60;99.90;;;;;;5030182;28;20036;-85
2023/01/16 12:46:29;;;;;;;7.60;1.50;;;5.60;99.90;;;;;;5029428;28;20064;-83
2023/01/16 12:49:12;;;;;;;3.70;1.20;;;5.60;99.90;;;;;;5019939;28;20045;-83
2023/01/16 12:51:59;;;;;;;3.88;1.40;;;5.60;99.90;;;;;;5029471;28;20029;-83
2023/01/16 12:54:56;;;;;;;1.95;1.23;;;5.60;99.90;;;;;;5031833;28;20029;-84
2023/01/16 12:57:49;;;;;;;4.47;1.52;;;5.60;99.90;;;;;;5025528;28;20040;-85
2023/01/16 13:00:27;;;;;;;4.15;1.60;;;5.60;99.90;;;;;;5022701;28;20034;-83
2023/01/16 13:02:58;;;;;;;9.88;2.33;;;5.60;99.90;;;;;;5028417;28;20025;-85
2023/01/16 13:05:27;;;;;;;5.47;1.63;;;5.70;99.90;;;;;;5036801;28;20057;-82
2023/01/16 13:08:11;;;;;;;7.78;1.60;;;5.60;99.90;;;;;;5030493;28;20032;-82
2023/01/16 13:13:31;;;;;;;7.88;2.00;;;5.60;99.90;;;;;;5042794;28;20535;-82
2023/01/16 13:16:14;;;;;;;5.15;1.60;;;5.60;99.90;;;;;;5040434;28;20344;-83
2023/01/16 13:18:43;;;;;;;9.32;2.00;;;5.60;99.90;;;;;;5043972;28;20521;-81
2023/01/16 13:21:16;;;;;;;6.35;1.85;;;5.60;99.90;;;;;;5031346;28;20026;-85
2023/01/16 13:23:47;;;;;;;2.28;1.40;;;5.60;99.90;;;;;;5037896;28;20033;-82
2023/01/16 13:26:16;;;;;;;5.28;1.80;;;5.60;99.90;;;;;;5028373;28;20034;-83
2023/01/16 13:29:07;;;;;;;5.00;1.52;;;5.60;99.90;;;;;;5027580;28;20133;-85
2023/01/16 13:31:38;;;;;;;4.70;1.70;;;5.60;99.90;;;;;;5022235;28;20135;-83
2023/01/16 13:34:28;;;;;;;4.28;1.50;;;5.60;99.90;;;;;;5033398;28;20025;-87
2023/01/16 13:37:21;;;;;;;5.55;1.48;;;5.60;99.90;;;;;;5026815;28;20026;-83
2023/01/16 13:40:12;;;;;;;3.92;1.58;;;5.60;99.90;;;;;;5032241;28;20171;-82
2023/01/16 13:42:47;;;;;;;3.33;1.58;;;5.60;99.90;;;;;;5051973;28;20030;-82
2023/01/16 13:45:49;;;;;;;2.50;1.45;;;5.60;99.90;;;;;;5029957;28;20025;-82
2023/01/16 13:48:18;;;;;;;5.05;1.42;;;5.60;99.90;;;;;;5030225;28;20033;-83
2023/01/16 13:50:52;;;;;;;6.40;1.60;;;5.60;99.90;;;;;;5030223;28;20017;-82
2023/01/16 13:53:21;;;;;;;5.85;1.70;;;5.60;99.90;;;;;;5037932;28;20132;-82
2023/01/16 13:55:47;;;;;;;6.72;1.75;;;5.70;99.90;;;;;;5035106;28;20025;-82
2023/01/16 13:58:20;;;;;;;2.25;1.60;;;5.60;99.90;;;;;;5028411;28;20037;-82
2023/01/16 14:00:54;;;;;;;8.88;1.95;;;5.70;99.90;;;;;;5037502;28;20013;-83
2023/01/16 14:03:29;;;;;;;1.58;1.25;;;5.70;99.90;;;;;;5042560;28;20558;-83
2023/01/16 14:06:15;;;;;;;6.55;2.05;;;5.70;99.90;;;;;;5031247;28;20030;-82
2023/01/16 14:09:08;;;;;;;11.32;1.70;;;5.80;99.90;;;;;;5028963;28;20075;-80
2023/01/16 14:12:25;;;;;;;4.30;1.58;;;5.80;99.90;;;;;;5032184;28;20049;-85
2023/01/16 14:18:23;;;;;;;3.72;1.55;;;5.90;99.90;;;;;;5039827;28;20104;-86
2023/01/16 14:20:48;;;;;;;2.13;1.55;;;5.90;99.90;;;;;;5034443;28;20108;-83
2023/01/16 14:26:17;;;;;;;3.50;1.65;;;5.90;99.90;;;;;;5031094;28;20033;-83
2023/01/16 14:28:47;;;;;;;10.55;2.00;;;5.80;99.90;;;;;;5024942;28;20034;-83
2023/01/16 14:31:23;;;;;;;1.55;1.10;;;5.80;99.90;;;;;;5034409;28;20049;-82